Terminal Aerodrome Forecast
Issued by NWS Oklahoma City, OK

Home | Current Version | Previous Version | Text Only | Print | Product List | Glossary On
Versions: 1 2 3 4 5 6 7 8 9 10 11 12 13 14 15 16 17 18 19 20 21 22
000
FTUS44 KOUN 270014 AAA
TAFOUN
TAF AMD
KOUN 270014Z 2700/2724 32012KT P6SM BKN030
      TEMPO 2700/2704 OVC020
     FM270600 33016G23KT P6SM OVC015
     FM271000 35014G20KT P6SM OVC035
     FM271800 35014KT P6SM SCT040=

USA.gov is the U.S. government's official web portal to all federal, state and local government web resources and services.